Island Supplier — WCZ2444 — position and weather

sailwx.info

Track history (hours):
 
Tides and Currents Weather Stations Pressure Air Temp Water Temp Dewpoint Dewpoint Depression Visibility Wind Speed Wind Dir Waves Ship Positions

Island Supplier

Owner: Santa Catalina Island Resort Services, Inc., AVALON, CA. More information available from US FCC via Universal Licensing System and Coast Guard Vessel Documentation Center.

Last reported at 2016-Jul-28 15:29 UTC. Time now 2016-Jul-29 00:12 UTC.
Position N 33°29' W 118°36'.

Length 22 m; draft 1 m.

Type: Cargo ship. MMSI: 366765690.

Date/timePositionNaut miles runAvg speedWind from/ knotsBaromVisibWave heightAir tempDewpointWater temp
2016-Jul-28 15:29N 33°29' W 118°36'6 6.2
2016-Jul-28 14:33N 33°33' W 118°31'6 6.2
2016-Jul-28 13:33N 33°36' W 118°25'6 6.2
2016-Jul-28 12:33N 33°40' W 118°19'5 4.7
2016-Jul-28 11:33N 33°44' W 118°17'1 0.0
2016-Jul-27 00:23N 33°45' W 118°16'0 0.0
2016-Jul-26 23:33N 33°45' W 118°16'5 4.8
2016-Jul-26 22:33N 33°40' W 118°18'7 7.1
2016-Jul-26 21:33N 33°36' W 118°25'7 7.1
2016-Jul-26 20:33N 33°32' W 118°32'  
2016-Jul-22 22:34N 33°30' W 118°34'6 6.1
2016-Jul-22 21:33N 33°34' W 118°28'6 6.0
2016-Jul-22 20:34N 33°38' W 118°23'6 6.1
2016-Jul-22 19:33N 33°41' W 118°17'3 2.3
2016-Jul-22 18:19N 33°44' W 118°16'1 0.3
2016-Jul-22 15:19N 33°45' W 118°16'0 0.1
2016-Jul-22 14:33N 33°45' W 118°16'5 5.5
2016-Jul-22 13:33N 33°40' W 118°18'7 7.3
2016-Jul-22 12:33N 33°34' W 118°23'8 7.3
2016-Jul-22 11:31N 33°28' W 118°29'3 0.2
2016-Jul-21 20:33N 33°29' W 118°32'4 0.7
2016-Jul-21 15:21N 33°29' W 118°37'6 6.6
2016-Jul-21 14:23N 33°33' W 118°31'5 6.6
2016-Jul-21 13:33N 33°36' W 118°26'6 6.5
2016-Jul-21 12:34N 33°40' W 118°19'5 4.5
2016-Jul-21 11:32N 33°44' W 118°16'1 0.0
2016-Jul-20 00:33N 33°45' W 118°16'2 1.8
2016-Jul-19 23:34N 33°43' W 118°16'6 5.7
2016-Jul-19 22:33N 33°39' W 118°20'  
Track history (hours):
 
Tides and Currents Weather Stations Pressure Air Temp Water Temp Dewpoint Dewpoint Depression Visibility Wind Speed Wind Dir Waves Ship Positions

Island Supplier

Owner: Santa Catalina Island Resort Services, Inc., AVALON, CA. More information available from US FCC via Universal Licensing System and Coast Guard Vessel Documentation Center.

Last reported at 2016-Jul-28 15:29 UTC. Time now 2016-Jul-29 00:12 UTC.
Position N 33°29' W 118°36'.

Length 22 m; draft 1 m.

Type: Cargo ship. MMSI: 366765690.

Date/timePositionNaut miles runAvg speedWind from/ knotsBaromVisibWave heightAir tempDewpointWater temp
2016-Jul-28 15:29N 33°29' W 118°36'6 6.2
2016-Jul-28 14:33N 33°33' W 118°31'6 6.2
2016-Jul-28 13:33N 33°36' W 118°25'6 6.2
2016-Jul-28 12:33N 33°40' W 118°19'5 4.7
2016-Jul-28 11:33N 33°44' W 118°17'1 0.0
2016-Jul-27 00:23N 33°45' W 118°16'0 0.0
2016-Jul-26 23:33N 33°45' W 118°16'5 4.8
2016-Jul-26 22:33N 33°40' W 118°18'7 7.1
2016-Jul-26 21:33N 33°36' W 118°25'7 7.1
2016-Jul-26 20:33N 33°32' W 118°32'  
2016-Jul-22 22:34N 33°30' W 118°34'6 6.1
2016-Jul-22 21:33N 33°34' W 118°28'6 6.0
2016-Jul-22 20:34N 33°38' W 118°23'6 6.1
2016-Jul-22 19:33N 33°41' W 118°17'3 2.3
2016-Jul-22 18:19N 33°44' W 118°16'1 0.3
2016-Jul-22 15:19N 33°45' W 118°16'0 0.1
2016-Jul-22 14:33N 33°45' W 118°16'5 5.5
2016-Jul-22 13:33N 33°40' W 118°18'7 7.3
2016-Jul-22 12:33N 33°34' W 118°23'8 7.3
2016-Jul-22 11:31N 33°28' W 118°29'3 0.2
2016-Jul-21 20:33N 33°29' W 118°32'4 0.7
2016-Jul-21 15:21N 33°29' W 118°37'6 6.6
2016-Jul-21 14:23N 33°33' W 118°31'5 6.6
2016-Jul-21 13:33N 33°36' W 118°26'6 6.5
2016-Jul-21 12:34N 33°40' W 118°19'5 4.5
2016-Jul-21 11:32N 33°44' W 118°16'1 0.0
2016-Jul-20 00:33N 33°45' W 118°16'2 1.8
2016-Jul-19 23:34N 33°43' W 118°16'6 5.7
2016-Jul-19 22:33N 33°39' W 118°20'  

Dump ship's entire track history